Time;durP1;ratioP1;P1;durP2;ratioP2;P2;SDS_P1;SDS_P2;PMS_P1;PMS_P2;Temp;Humidity;BMP_temperature;BMP_pressure;BME280_temperature;BME280_humidity;BME280_pressure;Samples;Min_cycle;Max_cycle;Signal;HPM_P1;HPM_P2
2024/01/23 00:03:53;;;;;;;8.23;5.13;;;;;;;4.80;67.83;100056.66;31626022;28;20381;-67
2024/01/23 00:18:53;;;;;;;10.43;5.20;;;;;;;4.75;67.79;100083.47;31624587;28;40950;-68
2024/01/23 00:33:54;;;;;;;8.30;5.30;;;;;;;4.70;68.38;100083.88;31622844;28;41903;-71
2024/01/23 00:48:54;;;;;;;10.23;5.32;;;;;;;4.62;68.47;100073.16;31620547;28;41455;-65
2024/01/23 01:03:55;;;;;;;9.88;6.18;;;;;;;4.27;68.47;100082.34;31620706;28;20983;-64
2024/01/23 01:18:57;;;;;;;12.82;6.72;;;;;;;3.64;69.21;100093.75;31619291;28;20816;-69
2024/01/23 01:33:57;;;;;;;8.52;5.35;;;;;;;3.32;70.30;100076.22;31618550;28;20061;-72
2024/01/23 01:48:57;;;;;;;6.85;4.78;;;;;;;3.33;71.36;100072.59;31626968;28;20127;-70
2024/01/23 02:03:58;;;;;;;8.75;5.38;;;;;;;3.46;71.52;100098.75;31639922;28;20035;-72
2024/01/23 02:18:58;;;;;;;8.73;4.85;;;;;;;3.53;71.59;100117.53;31636515;28;20465;-68
2024/01/23 02:33:58;;;;;;;11.50;5.47;;;;;;;3.37;71.87;100121.41;31634886;28;41624;-64
2024/01/23 02:48:59;;;;;;;6.80;4.63;;;;;;;3.39;72.04;100103.69;31632301;28;43005;-74
2024/01/23 03:03:59;;;;;;;9.10;5.70;;;;;;;3.60;71.76;100116.06;31632504;28;25790;-67
2024/01/23 03:18:59;;;;;;;7.53;4.50;;;;;;;3.64;72.18;100135.91;31630919;28;41665;-70
2024/01/23 03:33:59;;;;;;;8.23;5.18;;;;;;;3.69;71.70;100140.78;31629854;28;43047;-74
2024/01/23 03:49:00;;;;;;;8.40;5.50;;;;;;;3.64;71.50;100143.00;31626208;28;41314;-71
2024/01/23 04:04:00;;;;;;;12.50;6.22;;;;;;;3.68;72.16;100154.94;31624175;28;42892;-73
2024/01/23 04:19:01;;;;;;;6.80;5.07;;;;;;;3.82;71.79;100156.44;31621987;28;20035;-64
2024/01/23 04:34:01;;;;;;;8.52;4.88;;;;;;;3.71;72.01;100163.41;31619913;28;41656;-72
2024/01/23 04:49:01;;;;;;;7.93;4.57;;;;;;;3.70;72.24;100166.19;31618265;28;42932;-69
2024/01/23 05:04:01;;;;;;;6.68;4.20;;;;;;;3.67;72.34;100175.19;31619147;28;20107;-67
2024/01/23 05:19:02;;;;;;;10.40;4.85;;;;;;;3.51;72.24;100195.81;31614315;28;20028;-66
2024/01/23 05:34:03;;;;;;;9.63;4.47;;;;;;;3.51;72.10;100209.84;31615063;28;20087;-67
2024/01/23 05:49:03;;;;;;;8.50;5.13;;;;;;;3.51;72.26;100222.16;31609752;28;41710;-67
2024/01/23 06:04:07;;;;;;;12.18;4.82;;;;;;;3.18;72.17;100227.38;31610127;28;20035;-62
2024/01/23 06:19:08;;;;;;;13.15;4.50;;;;;;;3.25;72.47;100219.81;31611206;28;20040;-72
2024/01/23 06:34:08;;;;;;;12.73;4.00;;;;;;;3.31;72.47;100277.28;31616074;28;20028;-60
2024/01/23 06:49:09;;;;;;;11.38;5.20;;;;;;;3.71;72.66;100292.53;31626269;28;42468;-68
2024/01/23 07:04:09;;;;;;;9.88;3.80;;;;;;;4.13;72.29;100312.91;31627723;28;20060;-66
2024/01/23 07:19:09;;;;;;;5.93;3.25;;;;;;;4.40;71.68;100352.00;31626386;28;41533;-65
2024/01/23 07:34:10;;;;;;;8.10;2.83;;;;;;;4.62;71.28;100415.34;31622000;28;28614;-68
2024/01/23 07:49:10;;;;;;;6.20;3.05;;;;;;;4.82;70.96;100416.34;31620071;28;20048;-66
2024/01/23 08:04:13;;;;;;;7.60;2.35;;;;;;;5.17;71.11;100420.47;31621617;28;30183;-64
2024/01/23 08:19:13;;;;;;;6.22;2.05;;;;;;;6.00;69.39;100446.91;31618771;28;20044;-63
2024/01/23 08:34:13;;;;;;;4.40;1.92;;;;;;;9.26;67.74;100465.00;31617500;28;20044;-65
2024/01/23 08:49:15;;;;;;;4.72;1.55;;;;;;;13.60;57.31;100475.53;31614895;28;37440;-66
2024/01/23 09:04:15;;;;;;;5.65;1.40;;;;;;;9.68;58.53;100523.78;31615467;28;20096;-69
2024/01/23 09:19:16;;;;;;;5.13;1.70;;;;;;;8.49;59.53;100548.78;31612829;28;43216;-61
2024/01/23 09:34:16;;;;;;;6.22;1.80;;;;;;;10.25;57.40;100556.09;31613344;28;36817;-68
2024/01/23 09:49:17;;;;;;;6.28;1.60;;;;;;;10.00;56.55;100552.44;31613391;28;20048;-66
2024/01/23 10:04:18;;;;;;;3.95;1.50;;;;;;;17.78;47.35;100549.72;31612777;28;20028;-63
2024/01/23 10:19:19;;;;;;;7.38;2.60;;;;;;;21.32;37.50;100595.88;31633830;28;25324;-69
2024/01/23 10:34:19;;;;;;;5.65;1.83;;;;;;;15.72;37.90;100597.19;31631181;28;20036;-67
2024/01/23 10:49:20;;;;;;;7.30;1.83;;;;;;;11.21;44.08;100619.88;31627840;28;37029;-67
2024/01/23 11:04:20;;;;;;;5.25;1.38;;;;;;;9.06;47.94;100626.50;31627990;28;20028;-63
2024/01/23 11:19:20;;;;;;;5.93;1.75;;;;;;;8.52;50.42;100636.97;31624466;28;37308;-67
2024/01/23 11:34:23;;;;;;;6.30;1.92;;;;;;;8.38;51.10;100624.97;31623875;28;40651;-69
2024/01/23 11:49:24;;;;;;;4.77;1.83;;;;;;;7.77;52.11;100647.44;31623312;28;23816;-65
2024/01/23 12:04:24;;;;;;;3.90;1.13;;;;;;;7.42;53.04;100668.25;31621965;28;38205;-66
